createdAt,value
2023-05-11T00:02:00.854Z,13.85
2023-05-11T00:04:31.458Z,14.40
2023-05-11T00:07:02.132Z,15.41
2023-05-11T00:09:32.781Z,14.07
2023-05-11T00:12:04.302Z,13.60
2023-05-11T00:14:34.866Z,13.13
2023-05-11T00:17:05.277Z,13.03
2023-05-11T00:19:35.683Z,12.88
2023-05-11T00:22:06.611Z,12.73
2023-05-11T00:24:37.741Z,12.44
2023-05-11T00:27:08.180Z,12.17
2023-05-11T00:29:38.549Z,12.10
2023-05-11T00:32:09.150Z,11.97
2023-05-11T00:34:39.519Z,11.92
2023-05-11T00:37:10.219Z,11.62
2023-05-11T00:39:41.877Z,11.78
2023-05-11T00:42:12.783Z,11.95
2023-05-11T00:44:43.007Z,11.94
2023-05-11T00:47:13.451Z,12.24
2023-05-11T00:49:43.644Z,12.49
2023-05-11T00:52:14.237Z,13.91
2023-05-11T00:54:44.933Z,15.10
2023-05-11T00:57:15.777Z,16.25
2023-05-11T00:59:46.212Z,16.72
2023-05-11T01:02:16.675Z,16.05
2023-05-11T01:04:47.119Z,16.43
2023-05-11T01:07:28.489Z,17.21
2023-05-11T01:09:58.892Z,17.32
2023-05-11T01:12:50.103Z,15.74
2023-05-11T01:15:31.706Z,14.72
2023-05-11T01:18:18.037Z,13.82
2023-05-11T01:20:49.415Z,13.84
2023-05-11T01:23:42.470Z,13.80
2023-05-11T01:26:26.096Z,13.68
2023-05-11T01:29:15.168Z,13.48
2023-05-11T01:31:47.709Z,13.57
2023-05-11T01:34:21.908Z,13.49
2023-05-11T01:37:07.475Z,13.35
2023-05-11T01:39:42.561Z,14.78
2023-05-11T01:42:13.042Z,15.97
2023-05-11T01:44:44.586Z,15.40
2023-05-11T01:47:14.908Z,15.64
2023-05-11T01:49:45.914Z,16.30
2023-05-11T01:52:16.416Z,16.78
2023-05-11T01:54:46.803Z,17.11
2023-05-11T01:57:18.164Z,16.77
2023-05-11T01:59:50.599Z,17.16
2023-05-11T02:02:21.952Z,17.38
2023-05-11T02:04:52.322Z,17.07
2023-05-11T02:07:23.121Z,16.87
2023-05-11T02:09:53.682Z,17.44
2023-05-11T02:12:24.205Z,17.80
2023-05-11T02:14:56.252Z,17.93
2023-05-11T02:17:27.538Z,17.56
2023-05-11T02:19:58.873Z,16.28
2023-05-11T02:22:29.588Z,15.65
2023-05-11T02:25:00.175Z,15.01
2023-05-11T02:27:31.027Z,15.36
2023-05-11T02:30:02.255Z,15.02
2023-05-11T02:32:34.640Z,14.91
2023-05-11T02:35:23.575Z,15.12
2023-05-11T02:37:56.046Z,16.31
2023-05-11T02:40:32.193Z,16.37
2023-05-11T02:43:13.843Z,15.37
2023-05-11T02:45:52.744Z,15.12
2023-05-11T02:48:27.552Z,14.85
2023-05-11T02:50:59.218Z,14.25
2023-05-11T02:53:35.564Z,14.38
2023-05-11T02:56:06.505Z,13.86
2023-05-11T02:58:39.093Z,13.74
2023-05-11T03:01:30.834Z,13.81
2023-05-11T03:04:01.653Z,14.49
2023-05-11T03:06:33.616Z,14.83
2023-05-11T03:09:06.847Z,15.08
2023-05-11T03:11:43.843Z,15.22
2023-05-11T03:14:15.436Z,15.30
2023-05-11T03:16:47.320Z,15.30
2023-05-11T03:19:19.094Z,15.27
2023-05-11T03:21:49.411Z,15.31
2023-05-11T03:24:20.180Z,15.45
2023-05-11T03:26:50.611Z,15.64
2023-05-11T03:29:22.064Z,15.72
2023-05-11T03:31:54.010Z,15.55
2023-05-11T03:34:25.477Z,15.64
2023-05-11T03:36:56.372Z,16.00
2023-05-11T03:39:27.279Z,15.68
2023-05-11T03:41:58.508Z,15.96
2023-05-11T03:44:29.217Z,14.91
2023-05-11T03:46:59.728Z,14.91
2023-05-11T03:49:30.280Z,14.68
2023-05-11T03:52:00.660Z,14.41
2023-05-11T03:54:31.463Z,14.19
2023-05-11T03:57:01.935Z,14.12
2023-05-11T03:59:32.343Z,14.52
2023-05-11T04:02:03.040Z,14.90
2023-05-11T04:04:33.973Z,14.47
2023-05-11T04:07:04.594Z,14.75
2023-05-11T04:09:35.556Z,14.49
2023-05-11T04:12:06.387Z,14.31
2023-05-11T04:14:37.035Z,14.52
2023-05-11T04:17:07.879Z,14.40
2023-05-11T04:19:38.957Z,14.51
2023-05-11T04:22:09.891Z,14.19
2023-05-11T04:24:40.582Z,14.04
2023-05-11T04:27:10.966Z,13.97
2023-05-11T04:29:41.264Z,13.39
2023-05-11T04:32:11.923Z,13.67
2023-05-11T04:34:42.601Z,13.52
2023-05-11T04:37:13.618Z,13.09
2023-05-11T04:39:45.476Z,12.79
2023-05-11T04:42:16.048Z,12.76
2023-05-11T04:44:48.962Z,12.87
2023-05-11T04:47:21.199Z,13.03
2023-05-11T04:49:53.371Z,12.91
2023-05-11T04:52:24.123Z,12.59
2023-05-11T04:54:55.607Z,12.69
2023-05-11T04:57:26.595Z,12.63
2023-05-11T04:59:57.460Z,12.44
2023-05-11T05:02:28.102Z,12.41
2023-05-11T05:04:58.319Z,12.06
2023-05-11T05:07:28.998Z,11.82
2023-05-11T05:09:59.346Z,11.82
2023-05-11T05:12:29.708Z,11.62
2023-05-11T05:15:00.324Z,11.85
2023-05-11T05:17:31.098Z,11.63
2023-05-11T05:20:02.656Z,11.61
2023-05-11T05:22:33.487Z,11.61
2023-05-11T05:25:05.272Z,11.55
2023-05-11T05:27:35.758Z,11.54
2023-05-11T05:30:09.674Z,11.50
2023-05-11T05:32:40.241Z,11.37
2023-05-11T05:35:10.965Z,11.29
2023-05-11T05:37:43.018Z,11.06
2023-05-11T05:40:13.745Z,11.07
2023-05-11T05:42:50.780Z,10.94
2023-05-11T05:45:24.412Z,10.91
2023-05-11T05:47:56.007Z,11.00
2023-05-11T05:50:26.355Z,10.90
2023-05-11T05:52:56.846Z,10.76
2023-05-11T05:55:29.256Z,10.80
2023-05-11T05:58:00.790Z,10.69
2023-05-11T06:00:31.500Z,10.70
2023-05-11T06:03:08.035Z,10.53
2023-05-11T06:05:39.044Z,10.53
2023-05-11T06:08:11.313Z,10.39
2023-05-11T06:10:42.489Z,10.48
2023-05-11T06:13:21.375Z,10.44
2023-05-11T06:15:59.694Z,10.50
2023-05-11T06:18:35.449Z,10.38
2023-05-11T06:21:08.762Z,10.28
2023-05-11T06:23:38.981Z,10.21
2023-05-11T06:26:10.053Z,10.12
2023-05-11T06:28:40.894Z,9.72
2023-05-11T06:31:16.472Z,9.71
2023-05-11T06:33:47.321Z,9.66
2023-05-11T06:36:25.096Z,9.74
2023-05-11T06:38:55.127Z,9.74
2023-05-11T06:41:26.209Z,9.71
2023-05-11T06:43:56.531Z,9.72
2023-05-11T06:46:37.915Z,9.91
2023-05-11T06:49:08.035Z,9.92
2023-05-11T06:51:38.926Z,9.75
2023-05-11T06:54:09.126Z,9.74
2023-05-11T06:56:39.776Z,9.84
2023-05-11T06:59:11.272Z,9.76
2023-05-11T07:01:41.681Z,9.72
2023-05-11T07:04:12.065Z,9.74
2023-05-11T07:06:42.465Z,9.67
2023-05-11T07:09:12.941Z,9.73
2023-05-11T07:11:43.376Z,9.76
2023-05-11T07:14:13.676Z,9.81
2023-05-11T07:16:44.268Z,9.86
2023-05-11T07:19:15.042Z,9.73
2023-05-11T07:21:45.314Z,9.82
2023-05-11T07:24:15.585Z,9.91
2023-05-11T07:26:45.953Z,9.86
2023-05-11T07:29:35.554Z,9.89
2023-05-11T07:32:10.022Z,9.57
2023-05-11T07:34:42.535Z,9.60
2023-05-11T07:37:13.573Z,9.53
2023-05-11T07:39:43.723Z,9.54
2023-05-11T07:42:14.497Z,9.45
2023-05-11T07:44:45.049Z,9.42
2023-05-11T07:47:15.328Z,9.49
2023-05-11T07:49:46.052Z,9.29
2023-05-11T07:52:16.913Z,9.45
2023-05-11T07:54:47.233Z,9.32
2023-05-11T07:57:17.564Z,9.13
2023-05-11T07:59:47.876Z,9.07
2023-05-11T08:02:18.129Z,9.17
2023-05-11T08:04:48.502Z,9.22
2023-05-11T08:07:19.548Z,8.92
2023-05-11T08:09:49.690Z,9.07
2023-05-11T08:12:19.986Z,8.89
2023-05-11T08:14:50.762Z,9.02
2023-05-11T08:17:21.077Z,8.90
2023-05-11T08:19:53.015Z,8.86
2023-05-11T08:22:23.748Z,8.92
2023-05-11T08:24:53.908Z,8.88
2023-05-11T08:27:24.209Z,8.83
2023-05-11T08:29:54.486Z,8.78
2023-05-11T08:32:25.174Z,8.77
2023-05-11T08:34:56.136Z,8.82
2023-05-11T08:37:26.804Z,8.91
2023-05-11T08:39:57.086Z,9.06
2023-05-11T08:42:27.412Z,9.03
2023-05-11T08:45:00.884Z,9.02
2023-05-11T08:47:32.589Z,9.13
2023-05-11T08:50:02.977Z,9.15
2023-05-11T08:52:33.161Z,9.03
2023-05-11T08:55:03.564Z,9.12
2023-05-11T08:57:34.351Z,9.08
2023-05-11T09:00:05.983Z,9.04
2023-05-11T09:02:37.192Z,9.10
2023-05-11T09:05:07.655Z,9.15
2023-05-11T09:07:38.771Z,9.21
2023-05-11T09:10:10.478Z,9.19
2023-05-11T09:12:43.692Z,9.32
2023-05-11T09:15:14.727Z,9.27
2023-05-11T09:17:45.019Z,9.22
2023-05-11T09:20:15.403Z,9.23
2023-05-11T09:22:46.749Z,9.37
2023-05-11T09:25:20.671Z,9.35
2023-05-11T09:27:51.511Z,9.37
2023-05-11T09:30:23.876Z,9.34
2023-05-11T09:33:01.366Z,9.31
2023-05-11T09:35:35.733Z,9.31
2023-05-11T09:38:13.186Z,9.30
2023-05-11T09:40:47.794Z,9.18
2023-05-11T09:43:19.547Z,9.21
2023-05-11T09:45:53.997Z,9.16
2023-05-11T09:48:24.692Z,9.10
2023-05-11T09:51:00.918Z,9.12
2023-05-11T09:53:38.362Z,9.12
2023-05-11T09:56:09.426Z,9.04
2023-05-11T09:58:52.799Z,8.96
2023-05-11T10:01:35.921Z,9.09
2023-05-11T10:04:22.052Z,9.04
2023-05-11T10:06:56.410Z,9.07
2023-05-11T10:09:26.907Z,9.13
2023-05-11T10:11:57.467Z,8.90
2023-05-11T10:14:29.468Z,8.90
2023-05-11T10:17:00.754Z,8.82
2023-05-11T10:19:30.966Z,8.89
2023-05-11T10:22:01.181Z,8.99
2023-05-11T10:24:31.503Z,8.89
2023-05-11T10:27:01.911Z,8.86
2023-05-11T10:29:32.252Z,8.91
2023-05-11T10:32:02.502Z,8.88
2023-05-11T10:34:32.776Z,8.92
2023-05-11T10:37:04.153Z,8.93
2023-05-11T10:39:34.536Z,8.89
2023-05-11T10:42:28.209Z,8.87
2023-05-11T10:45:08.302Z,8.92
2023-05-11T10:47:57.085Z,8.94
2023-05-11T10:50:30.732Z,8.94
2023-05-11T10:53:09.845Z,8.90
2023-05-11T10:55:55.541Z,8.97
2023-05-11T10:58:55.128Z,8.89
2023-05-11T11:01:33.365Z,9.00
2023-05-11T11:04:08.405Z,9.04
2023-05-11T11:06:43.774Z,9.03
2023-05-11T11:09:15.095Z,9.08
2023-05-11T11:11:49.473Z,9.15
2023-05-11T11:14:20.716Z,9.12
2023-05-11T11:17:30.425Z,9.05
2023-05-11T11:20:02.680Z,9.15
2023-05-11T11:22:39.936Z,9.17
2023-05-11T11:25:11.040Z,9.08
2023-05-11T11:27:47.358Z,9.03
2023-05-11T11:30:19.701Z,9.01
2023-05-11T11:32:55.772Z,9.03
2023-05-11T11:35:42.497Z,9.04
2023-05-11T11:38:18.353Z,9.04
2023-05-11T11:40:54.957Z,9.08
2023-05-11T11:43:29.024Z,9.10
2023-05-11T11:45:59.906Z,9.11
2023-05-11T11:48:39.578Z,9.14
2023-05-11T11:51:13.647Z,9.10
2023-05-11T11:53:45.105Z,9.01
2023-05-11T11:56:18.569Z,9.08
2023-05-11T11:58:49.125Z,8.97
2023-05-11T12:01:23.589Z,8.95
2023-05-11T12:04:06.290Z,8.92
2023-05-11T12:06:40.671Z,8.82
2023-05-11T12:09:11.189Z,8.79
2023-05-11T12:11:41.390Z,8.75
2023-05-11T12:14:11.881Z,8.64
2023-05-11T12:16:42.364Z,8.56
2023-05-11T12:19:12.846Z,8.56
2023-05-11T12:21:43.402Z,8.53
2023-05-11T12:24:14.074Z,8.42
2023-05-11T12:26:44.280Z,8.46
2023-05-11T12:29:15.367Z,8.40
2023-05-11T12:31:46.451Z,8.38
2023-05-11T12:34:17.682Z,8.40
2023-05-11T12:36:48.807Z,8.37
2023-05-11T12:39:20.256Z,8.36
2023-05-11T12:41:51.484Z,8.36
2023-05-11T12:44:30.834Z,8.36
2023-05-11T12:47:01.402Z,8.30
2023-05-11T12:49:31.609Z,8.24
2023-05-11T12:52:03.724Z,8.27
2023-05-11T12:54:39.528Z,8.27
2023-05-11T12:57:10.396Z,8.21
2023-05-11T12:59:41.973Z,8.13
2023-05-11T13:02:13.531Z,8.07
2023-05-11T13:04:44.294Z,7.98
2023-05-11T13:07:15.117Z,7.97
2023-05-11T13:09:47.229Z,7.97
2023-05-11T13:12:22.212Z,7.97
2023-05-11T13:14:53.276Z,7.79
2023-05-11T13:17:32.820Z,7.87
2023-05-11T13:20:18.432Z,7.85
2023-05-11T13:22:49.265Z,7.92
2023-05-11T13:25:21.815Z,7.79
2023-05-11T13:27:52.544Z,7.78
2023-05-11T13:30:23.052Z,7.75
2023-05-11T13:32:54.781Z,7.74
2023-05-11T13:35:25.122Z,7.68
2023-05-11T13:37:55.382Z,7.71
2023-05-11T13:40:26.468Z,7.72
2023-05-11T13:42:58.126Z,7.66
2023-05-11T13:45:28.583Z,7.65
2023-05-11T13:47:58.835Z,7.62
2023-05-11T13:50:29.314Z,7.61
2023-05-11T13:52:59.534Z,7.60
2023-05-11T13:55:30.262Z,7.54
2023-05-11T13:58:00.903Z,7.54
2023-05-11T14:00:31.215Z,7.56
2023-05-11T14:03:02.002Z,7.67
2023-05-11T14:05:32.945Z,7.66
2023-05-11T14:08:03.441Z,7.62
2023-05-11T14:10:34.289Z,7.77
2023-05-11T14:13:04.704Z,7.63
2023-05-11T14:15:36.000Z,7.68
2023-05-11T14:18:09.747Z,7.72
2023-05-11T14:20:40.589Z,7.52
2023-05-11T14:23:10.862Z,7.62
2023-05-11T14:25:41.248Z,7.63
2023-05-11T14:28:11.586Z,7.77
2023-05-11T14:30:41.949Z,7.82
2023-05-11T14:33:12.340Z,7.79
2023-05-11T14:35:42.935Z,7.83
2023-05-11T14:38:13.289Z,7.67
2023-05-11T14:40:44.603Z,7.92
2023-05-11T14:43:15.347Z,7.80
2023-05-11T14:45:45.802Z,7.78
2023-05-11T14:48:16.172Z,7.68
2023-05-11T14:50:46.736Z,7.63
2023-05-11T14:53:17.232Z,7.57
2023-05-11T14:55:48.054Z,7.61
2023-05-11T14:58:21.235Z,7.46
2023-05-11T15:00:51.930Z,7.33
2023-05-11T15:03:22.505Z,7.36
2023-05-11T15:05:53.298Z,7.25
2023-05-11T15:08:30.093Z,7.27
2023-05-11T15:11:01.343Z,7.32
2023-05-11T15:13:32.101Z,7.46
2023-05-11T15:16:02.871Z,7.57
2023-05-11T15:18:33.367Z,7.29
2023-05-11T15:21:06.100Z,7.26
2023-05-11T15:23:36.464Z,7.06
2023-05-11T15:26:06.874Z,6.89
2023-05-11T15:28:37.286Z,6.88
2023-05-11T15:31:07.834Z,6.75
2023-05-11T15:33:38.603Z,6.81
2023-05-11T15:36:13.805Z,6.71
2023-05-11T15:38:44.794Z,6.63
2023-05-11T15:41:15.604Z,6.74
2023-05-11T15:43:45.950Z,6.79
2023-05-11T15:46:16.616Z,6.67
2023-05-11T15:48:47.217Z,6.72
2023-05-11T15:51:17.666Z,6.75
2023-05-11T15:53:48.216Z,6.52
2023-05-11T15:56:18.584Z,6.66
2023-05-11T15:58:49.140Z,6.52
2023-05-11T16:01:20.130Z,6.22
2023-05-11T16:03:51.006Z,6.37
2023-05-11T16:06:21.268Z,6.47
2023-05-11T16:08:51.707Z,6.40
2023-05-11T16:11:22.842Z,6.18
2023-05-11T16:13:53.251Z,6.11
2023-05-11T16:16:23.718Z,6.14
2023-05-11T16:18:53.979Z,5.97
2023-05-11T16:21:24.209Z,6.02
2023-05-11T16:23:54.874Z,6.19
2023-05-11T16:26:25.386Z,6.01
2023-05-11T16:28:55.678Z,6.04
2023-05-11T16:31:26.256Z,6.05
2023-05-11T16:33:56.679Z,6.14
2023-05-11T16:36:27.074Z,6.01
2023-05-11T16:38:57.424Z,6.18
2023-05-11T16:41:30.099Z,6.33
2023-05-11T16:44:00.328Z,6.26
2023-05-11T16:46:30.587Z,5.89
2023-05-11T16:49:01.249Z,5.87
2023-05-11T16:51:31.742Z,5.82
2023-05-11T16:54:02.190Z,5.79
2023-05-11T16:56:32.426Z,5.67
2023-05-11T16:59:02.760Z,5.70
2023-05-11T17:01:33.672Z,5.71
2023-05-11T17:04:04.323Z,5.65
2023-05-11T17:06:44.439Z,5.60
2023-05-11T17:09:23.473Z,5.65
2023-05-11T17:11:54.210Z,5.70
2023-05-11T17:14:24.946Z,5.54
2023-05-11T17:16:55.436Z,5.53
2023-05-11T17:19:26.375Z,5.47
2023-05-11T17:21:56.784Z,5.62
2023-05-11T17:24:27.737Z,5.56
2023-05-11T17:26:58.130Z,5.52
2023-05-11T17:29:28.607Z,5.41
2023-05-11T17:31:59.202Z,5.61
2023-05-11T17:34:29.937Z,5.44
2023-05-11T17:37:00.496Z,5.34
2023-05-11T17:39:32.148Z,5.40
2023-05-11T17:42:02.515Z,5.50
2023-05-11T17:44:32.970Z,5.16
2023-05-11T17:47:03.674Z,5.15
2023-05-11T17:49:34.363Z,5.27
2023-05-11T17:52:04.948Z,5.09
2023-05-11T17:54:35.153Z,5.11
2023-05-11T17:57:08.344Z,4.93
2023-05-11T17:59:38.743Z,4.95
2023-05-11T18:02:09.498Z,4.98
2023-05-11T18:04:40.225Z,4.94
2023-05-11T18:07:10.932Z,4.83
2023-05-11T18:09:41.496Z,4.93
2023-05-11T18:12:13.200Z,4.83
2023-05-11T18:14:44.137Z,4.75
2023-05-11T18:17:14.536Z,4.75
2023-05-11T18:19:45.266Z,4.87
2023-05-11T18:22:15.861Z,4.89
2023-05-11T18:24:46.222Z,5.02
2023-05-11T18:27:16.891Z,5.25
2023-05-11T18:29:47.640Z,5.13
2023-05-11T18:32:19.221Z,5.05
2023-05-11T18:34:49.830Z,5.13
2023-05-11T18:37:20.373Z,5.19
2023-05-11T18:39:51.723Z,5.20
2023-05-11T18:42:22.120Z,5.28
2023-05-11T18:44:54.832Z,5.02
2023-05-11T18:47:25.330Z,5.02
2023-05-11T18:49:55.914Z,4.97
2023-05-11T18:52:26.290Z,5.07
2023-05-11T18:54:56.802Z,5.07
2023-05-11T18:57:27.473Z,5.08
2023-05-11T18:59:57.833Z,5.06
2023-05-11T19:02:28.534Z,4.93
2023-05-11T19:04:59.006Z,4.87
2023-05-11T19:07:29.916Z,5.02
2023-05-11T19:10:00.545Z,5.07
2023-05-11T19:12:33.017Z,5.04
2023-05-11T19:15:03.392Z,5.12
2023-05-11T19:17:33.838Z,5.02
2023-05-11T19:20:05.340Z,4.95
2023-05-11T19:22:35.482Z,5.12
2023-05-11T19:25:05.827Z,5.31
2023-05-11T19:27:35.941Z,5.51
2023-05-11T19:30:06.576Z,5.61
2023-05-11T19:32:37.698Z,5.45
2023-05-11T19:35:08.604Z,5.54
2023-05-11T19:37:39.222Z,5.58
2023-05-11T19:40:37.394Z,5.60
2023-05-11T19:43:00.685Z,5.78
2023-05-11T19:45:36.015Z,5.82
2023-05-11T19:48:06.422Z,5.62
2023-05-11T19:50:37.633Z,5.65
2023-05-11T19:53:07.890Z,5.70
2023-05-11T19:55:40.078Z,5.73
2023-05-11T19:58:10.713Z,5.91
2023-05-11T20:00:42.934Z,5.91
2023-05-11T20:03:13.106Z,6.21
2023-05-11T20:05:43.544Z,6.22
2023-05-11T20:08:14.093Z,6.29
2023-05-11T20:10:44.384Z,6.46
2023-05-11T20:13:15.351Z,6.81
2023-05-11T20:15:48.987Z,7.05
2023-05-11T20:18:20.269Z,7.11
2023-05-11T20:20:50.440Z,7.23
2023-05-11T20:23:20.974Z,7.29
2023-05-11T20:25:51.798Z,7.29
2023-05-11T20:28:28.512Z,7.42
2023-05-11T20:30:59.113Z,7.71
2023-05-11T20:36:02.797Z,10.05
2023-05-11T20:38:33.157Z,11.72
2023-05-11T20:41:03.549Z,12.50
2023-05-11T20:43:34.212Z,12.80
2023-05-11T20:46:05.501Z,12.44
2023-05-11T20:48:39.775Z,13.31
2023-05-11T20:51:11.409Z,12.60
2023-05-11T20:53:41.532Z,12.39
2023-05-11T20:56:14.107Z,12.85
2023-05-11T20:58:44.509Z,12.70
2023-05-11T21:01:15.002Z,12.96
2023-05-11T21:03:45.509Z,12.17
2023-05-11T21:06:15.817Z,12.02
2023-05-11T21:08:46.256Z,13.10
2023-05-11T21:11:16.367Z,12.88
2023-05-11T21:13:47.209Z,13.72
2023-05-11T21:16:17.855Z,13.97
2023-05-11T21:18:48.384Z,13.82
2023-05-11T21:21:20.691Z,13.03
2023-05-11T21:23:51.071Z,13.49
2023-05-11T21:26:21.392Z,13.49
2023-05-11T21:28:52.044Z,13.69
2023-05-11T21:31:22.982Z,13.92
2023-05-11T21:33:54.811Z,14.27
2023-05-11T21:36:25.472Z,13.99
2023-05-11T21:38:55.841Z,14.58
2023-05-11T21:41:26.202Z,14.86
2023-05-11T21:43:56.522Z,14.27
2023-05-11T21:46:26.885Z,14.77
2023-05-11T21:48:57.544Z,15.12
2023-05-11T21:51:27.994Z,15.38
2023-05-11T21:53:58.460Z,15.59
2023-05-11T21:56:28.622Z,14.99
2023-05-11T21:58:58.745Z,15.86
2023-05-11T22:01:29.226Z,15.06
2023-05-11T22:04:02.499Z,15.49
2023-05-11T22:06:33.610Z,16.04
2023-05-11T22:09:04.227Z,16.10
2023-05-11T22:11:35.528Z,15.97
2023-05-11T22:14:06.841Z,16.38
2023-05-11T22:16:37.345Z,15.81
2023-05-11T22:19:08.345Z,16.79
2023-05-11T22:21:38.776Z,16.83
2023-05-11T22:24:09.648Z,16.75
2023-05-11T22:26:39.958Z,16.74
2023-05-11T22:29:10.912Z,16.29
2023-05-11T22:31:42.410Z,16.61
2023-05-11T22:34:14.188Z,17.62
2023-05-11T22:36:44.588Z,18.04
2023-05-11T22:39:15.351Z,17.41
2023-05-11T22:41:45.826Z,17.75
2023-05-11T22:44:16.416Z,17.52
2023-05-11T22:46:47.044Z,16.32
2023-05-11T22:49:17.850Z,16.95
2023-05-11T22:51:48.102Z,16.43
2023-05-11T22:54:18.506Z,16.69
2023-05-11T22:56:48.795Z,16.53
2023-05-11T22:59:19.475Z,16.20
2023-05-11T23:01:49.727Z,16.73
2023-05-11T23:04:20.077Z,16.80
2023-05-11T23:06:50.375Z,16.83
2023-05-11T23:09:20.787Z,17.40
2023-05-11T23:11:52.846Z,16.66
2023-05-11T23:14:24.007Z,16.25
2023-05-11T23:16:54.352Z,16.30
2023-05-11T23:19:26.562Z,16.41
2023-05-11T23:21:56.871Z,15.70
2023-05-11T23:24:28.075Z,15.78
2023-05-11T23:26:58.510Z,16.35
2023-05-11T23:29:29.485Z,16.69
2023-05-11T23:31:59.900Z,16.72
2023-05-11T23:34:30.158Z,16.23
2023-05-11T23:37:00.306Z,16.95
2023-05-11T23:39:30.709Z,17.18
2023-05-11T23:42:02.079Z,17.10
2023-05-11T23:44:32.986Z,17.45
2023-05-11T23:47:03.657Z,17.49
2023-05-11T23:49:33.868Z,17.76
2023-05-11T23:52:07.334Z,17.83
2023-05-11T23:54:38.048Z,17.38
2023-05-11T23:57:08.411Z,17.70
2023-05-11T23:59:39.093Z,18.09
